European Causeway — C6RG7 — position and weather

sailwx.info

Track history (hours):
 
Tides and Currents Weather Stations Pressure Air Temp Water Temp Dewpoint Dewpoint Depression Visibility Wind Speed Wind Dir Waves Ship Positions

European Causeway

Operator: P & O Irish Sea

Last reported at 2019-Jul-17 00:00 UTC. Time now 2019-Jul-17 00:24 UTC.
Position N 54°57' W 005°27'.

Length 145 m; draft 5.5 m.

Type: Passenger vessel. MMSI: 311027000.

Date/timePositionNaut miles runAvg speedWind from/ knotsBaromVisibWave heightAir tempDewpointWater temp
2019-Jul-17 00:00N 54°57' W 005°27'917.9
2019-Jul-16 23:30N 55°02' W 005°14'1 0.4
2019-Jul-16 20:14N 55°01' W 005°12'619.5
2019-Jul-16 19:54N 54°58' W 005°22'1021.0
2019-Jul-16 19:27N 54°54' W 005°37'715.4
2019-Jul-16 19:00N 54°51' W 005°48'0 0.1
2019-Jul-16 18:29N 54°51' W 005°48'0 0.0
2019-Jul-16 17:56N 54°51' W 005°48'6 8.5
2019-Jul-16 17:12N 54°55' W 005°39'421.8
2019-Jul-16 17:00N 54°57' W 005°33'1121.8
2019-Jul-16 16:30N 55°01' W 005°15'2 0.7
2019-Jul-16 13:57N 55°01' W 005°12'1022.1
2019-Jul-16 13:30N 54°57' W 005°27'1319.7
2019-Jul-16 12:51N 54°51' W 005°48'0 0.7
2019-Jul-16 12:24N 54°51' W 005°48'0 0.0
2019-Jul-16 11:57N 54°51' W 005°48'0 0.0
2019-Jul-16 11:30N 54°51' W 005°48'611.6
2019-Jul-16 11:00N 54°54' W 005°39'1320.2
2019-Jul-16 10:21N 54°60' W 005°18'5 1.8
2019-Jul-16 07:48N 55°01' W 005°11'717.8
2019-Jul-16 07:23N 54°57' W 005°22'1019.4
2019-Jul-16 06:52N 54°54' W 005°38'616.8
2019-Jul-16 06:29N 54°51' W 005°48'0 0.2
2019-Jul-16 05:58N 54°51' W 005°48'0 0.0
2019-Jul-16 05:28N 54°51' W 005°48'0 0.0
2019-Jul-16 05:00N 54°51' W 005°48'712.6
2019-Jul-16 04:26N 54°55' W 005°38'818.0
2019-Jul-16 04:00N 54°58' W 005°25'6 1.5
2019-Jul-16 00:11N 54°60' W 005°16'418.8
2019-Jul-15 23:59N 54°58' W 005°22'817.7
2019-Jul-15 23:30N 54°54' W 005°35'814.9
2019-Jul-15 22:57N 54°51' W 005°48'0 0.2
2019-Jul-15 22:19N 54°51' W 005°48'0 0.0
2019-Jul-15 21:49N 54°51' W 005°48'0 0.0
2019-Jul-15 21:22N 54°51' W 005°48'0 0.0
2019-Jul-15 20:58N 54°51' W 005°48'4 8.5
2019-Jul-15 20:27N 54°53' W 005°41'817.5
2019-Jul-15 20:00N 54°56' W 005°29'918.4
2019-Jul-15 19:30N 55°01' W 005°14'2 0.9
2019-Jul-15 16:48N 55°01' W 005°10'619.6
2019-Jul-15 16:30N 54°58' W 005°19'1020.2
2019-Jul-15 16:00N 54°55' W 005°35'816.2
2019-Jul-15 15:30N 54°51' W 005°48'0 0.1
2019-Jul-15 14:55N 54°51' W 005°48'0 0.0
2019-Jul-15 14:29N 54°51' W 005°48'5 9.9
2019-Jul-15 14:00N 54°54' W 005°41'918.6
2019-Jul-15 13:30N 54°58' W 005°27'917.4
2019-Jul-15 13:00N 55°01' W 005°13'15 5.0
2019-Jul-15 10:03N 54°54' W 005°36'119.8
2019-Jul-15 10:00N 54°54' W 005°37'713.0
2019-Jul-15 09:29N 54°51' W 005°48'0 0.0
2019-Jul-15 08:50N 54°51' W 005°48'0 0.0
2019-Jul-15 08:20N 54°51' W 005°48'2 5.5
2019-Jul-15 07:57N 54°52' W 005°45'918.1
2019-Jul-15 07:29N 54°56' W 005°32'918.7
2019-Jul-15 07:00N 54°60' W 005°18'4 1.6
2019-Jul-15 04:19N 55°01' W 005°11'617.9
2019-Jul-15 04:00N 54°58' W 005°20'918.4
2019-Jul-15 03:30N 54°54' W 005°34'816.4
2019-Jul-15 02:59N 54°52' W 005°48'1 1.4
2019-Jul-15 02:28N 54°51' W 005°48'0 0.0
2019-Jul-15 01:58N 54°51' W 005°48'0 0.0
2019-Jul-15 01:28N 54°51' W 005°48'0 0.0
2019-Jul-15 00:52N 54°51' W 005°48'2 5.9
2019-Jul-15 00:30N 54°53' W 005°47'1019.1
2019-Jul-15 00:00N 54°57' W 005°32'918.4
2019-Jul-14 23:30N 55°00' W 005°16'3 0.8
2019-Jul-14 20:21N 55°01' W 005°12'821.7
2019-Jul-14 20:00N 54°57' W 005°24'1222.2
2019-Jul-14 19:28N 54°53' W 005°43'3 7.5
2019-Jul-14 19:00N 54°51' W 005°48'0 0.0
2019-Jul-14 18:30N 54°51' W 005°48'0 0.0
2019-Jul-14 17:57N 54°51' W 005°48'0 0.0
2019-Jul-14 17:30N 54°51' W 005°48'510.4
2019-Jul-14 17:00N 54°54' W 005°40'918.2
2019-Jul-14 16:29N 54°58' W 005°25'12 5.1
2019-Jul-14 14:03N 55°01' W 005°04'415.2
2019-Jul-14 13:48N 55°01' W 005°11'618.7
2019-Jul-14 13:28N 54°58' W 005°20'818.1
2019-Jul-14 13:00N 54°55' W 005°34'917.3
2019-Jul-14 12:30N 54°52' W 005°48'1 1.6
2019-Jul-14 11:59N 54°51' W 005°48'0 0.0
2019-Jul-14 11:29N 54°51' W 005°48'5 9.3
2019-Jul-14 10:58N 54°53' W 005°41'919.0
2019-Jul-14 10:30N 54°57' W 005°27'14 5.4
2019-Jul-14 07:59N 55°01' W 005°05'816.6
2019-Jul-14 07:29N 54°59' W 005°18'918.1
2019-Jul-14 07:00N 54°55' W 005°32'1017.7
2019-Jul-14 06:28N 54°51' W 005°48'0 0.6
2019-Jul-14 05:53N 54°51' W 005°48'0 0.0
2019-Jul-14 05:26N 54°51' W 005°48'0 0.0
2019-Jul-14 04:56N 54°51' W 005°48'0 0.0
2019-Jul-14 04:23N 54°51' W 005°48'0 0.0
2019-Jul-14 03:53N 54°51' W 005°48'0 0.0
2019-Jul-14 03:26N 54°51' W 005°48'0 0.0
2019-Jul-14 02:56N 54°51' W 005°48'0 0.0
2019-Jul-14 01:59N 54°51' W 005°48'0 0.0
2019-Jul-14 00:26N 54°51' W 005°48'0 0.1
2019-Jul-13 23:50N 54°51' W 005°48'0 0.0
2019-Jul-13 23:26N 54°51' W 005°48'0 0.0
2019-Jul-13 22:32N 54°51' W 005°48'0 0.3
2019-Jul-13 22:29N 54°51' W 005°48'0 0.1
2019-Jul-13 21:59N 54°51' W 005°48'0 0.0
2019-Jul-13 21:17N 54°51' W 005°48'0 0.0
2019-Jul-13 20:57N 54°51' W 005°48'4 8.0
2019-Jul-13 20:26N 54°53' W 005°42'818.3
2019-Jul-13 19:58N 54°57' W 005°29'10 3.2
2019-Jul-13 16:43N 55°01' W 005°12'719.3
2019-Jul-13 16:22N 54°57' W 005°22'1020.4
2019-Jul-13 15:53N 54°54' W 005°38'613.9
2019-Jul-13 15:26N 54°51' W 005°48'0 0.0
2019-Jul-13 14:56N 54°51' W 005°48'0 0.0
2019-Jul-13 14:30N 54°51' W 005°48'610.5
2019-Jul-13 13:57N 54°54' W 005°40'918.2
2019-Jul-13 13:28N 54°58' W 005°26'9 3.2
2019-Jul-13 10:45N 55°01' W 005°12'518.6
2019-Jul-13 10:28N 54°58' W 005°20'818.1
2019-Jul-13 10:00N 54°55' W 005°34'917.2
2019-Jul-13 09:30N 54°51' W 005°48'1 1.2
2019-Jul-13 08:57N 54°51' W 005°48'0 0.0
2019-Jul-13 08:27N 54°51' W 005°48'711.7
2019-Jul-13 07:49N 54°55' W 005°37'717.7
2019-Jul-13 07:24N 54°58' W 005°25'8 2.5
2019-Jul-13 04:11N 55°01' W 005°12'617.4
2019-Jul-13 03:49N 54°58' W 005°22'718.3
2019-Jul-13 03:27N 54°55' W 005°33'918.3
2019-Jul-13 02:56N 54°51' W 005°48'1 1.3
2019-Jul-13 02:29N 54°51' W 005°48'0 0.0
2019-Jul-13 01:59N 54°51' W 005°48'0 0.0
2019-Jul-13 01:29N 54°51' W 005°48'0 0.0
2019-Jul-13 00:54N 54°51' W 005°48'4 9.0
2019-Jul-13 00:24N 54°53' W 005°42'1618.0
2019-Jul-12 23:32N 55°00' W 005°17'017.8
2019-Jul-12 23:30N 55°00' W 005°16'1 0.4
2019-Jul-12 20:10N 55°01' W 005°14'417.8
2019-Jul-12 19:55N 54°58' W 005°20'1218.3
2019-Jul-12 19:16N 54°54' W 005°40'516.1
2019-Jul-12 18:56N 54°51' W 005°48'0 0.2
2019-Jul-12 18:19N 54°51' W 005°48'0 0.0
2019-Jul-12 17:49N 54°51' W 005°48'0 0.0
2019-Jul-12 17:30N 54°51' W 005°48'912.5
2019-Jul-12 16:48N 54°55' W 005°35'1117.9
2019-Jul-12 16:10N 55°00' W 005°17'3 1.1
2019-Jul-12 13:47N 55°01' W 005°12'619.7
2019-Jul-12 13:27N 54°57' W 005°22'920.0
2019-Jul-12 13:00N 54°54' W 005°37'714.4
2019-Jul-12 12:30N 54°51' W 005°48'0 0.1
2019-Jul-12 11:53N 54°51' W 005°48'0 0.0
2019-Jul-12 11:30N 54°51' W 005°48'1115.7
2019-Jul-12 10:47N 54°56' W 005°31'920.1
2019-Jul-12 10:20N 55°00' W 005°17'2 0.9
2019-Jul-12 07:43N 55°01' W 005°13'618.4
2019-Jul-12 07:22N 54°58' W 005°22'718.2
2019-Jul-12 07:00N 54°55' W 005°33'916.8
2019-Jul-12 06:27N 54°51' W 005°48'0 0.3
2019-Jul-12 05:54N 54°51' W 005°48'0 0.0
2019-Jul-12 05:24N 54°51' W 005°48'0 0.0
2019-Jul-12 05:00N 54°51' W 005°48'510.5
2019-Jul-12 04:29N 54°54' W 005°40'1018.0
2019-Jul-12 03:57N 54°58' W 005°25'7 1.9
2019-Jul-12 00:12N 55°01' W 005°14'718.3
2019-Jul-11 23:49N 54°57' W 005°24'518.0
2019-Jul-11 23:30N 54°55' W 005°33'916.4
2019-Jul-11 22:56N 54°51' W 005°48'0 0.4
2019-Jul-11 22:30N 54°51' W 005°48'0 0.0
2019-Jul-11 22:00N 54°51' W 005°48'0 0.0
2019-Jul-11 21:30N 54°51' W 005°48'0 0.0
2019-Jul-11 21:00N 54°51' W 005°48'710.3
2019-Jul-11 20:21N 54°54' W 005°38'1418.4
2019-Jul-11 19:36N 55°00' W 005°16'1 0.4
2019-Jul-11 16:47N 54°60' W 005°14'621.3
2019-Jul-11 16:29N 54°57' W 005°24'1520.6
2019-Jul-11 15:46N 54°51' W 005°48'0 0.4
2019-Jul-11 15:23N 54°51' W 005°48'0 0.0
2019-Jul-11 14:50N 54°51' W 005°48'7 9.8
2019-Jul-11 14:07N 54°54' W 005°38'421.8
2019-Jul-11 13:57N 54°56' W 005°32'11 3.4
2019-Jul-11 10:43N 54°60' W 005°14'520.6
2019-Jul-11 10:29N 54°58' W 005°22'920.0
2019-Jul-11 10:00N 54°54' W 005°37'714.0
2019-Jul-11 09:30N 54°51' W 005°48'0 0.0
2019-Jul-11 08:51N 54°51' W 005°48'0 0.0
2019-Jul-11 08:30N 54°51' W 005°48'5 9.9
2019-Jul-11 07:59N 54°54' W 005°40'918.6
2019-Jul-11 07:28N 54°58' W 005°26'8 2.5
2019-Jul-11 04:16N 55°02' W 005°14'616.6
2019-Jul-11 03:55N 54°58' W 005°22'818.8
2019-Jul-11 03:30N 54°55' W 005°34'917.1
2019-Jul-11 02:59N 54°51' W 005°48'0 0.2
2019-Jul-11 02:28N 54°51' W 005°48'0 0.0
2019-Jul-11 02:01N 54°51' W 005°48'0 0.0
2019-Jul-11 01:22N 54°51' W 005°48'7 9.0
2019-Jul-11 00:39N 54°54' W 005°38'321.6
2019-Jul-11 00:30N 54°56' W 005°33'1121.7
2019-Jul-10 23:59N 55°00' W 005°16'0 0.1
2019-Jul-10 20:57N 55°00' W 005°15'1222.4
2019-Jul-10 20:26N 54°55' W 005°33'918.0
2019-Jul-10 19:55N 54°51' W 005°48'0 0.4
2019-Jul-10 19:30N 54°51' W 005°48'0 0.0
2019-Jul-10 18:27N 54°51' W 005°48'0 0.0
2019-Jul-10 17:57N 54°51' W 005°48'0 0.0
2019-Jul-10 17:30N 54°51' W 005°48'21 5.6
2019-Jul-10 13:41N 55°00' W 005°14'1620.3
2019-Jul-10 12:55N 54°55' W 005°40'612.1
2019-Jul-10 12:26N 54°51' W 005°48'0 0.0
2019-Jul-10 11:32N 54°51' W 005°48'0 0.1
2019-Jul-10 11:30N 54°51' W 005°48'610.8
2019-Jul-10 10:59N 54°54' W 005°40'16 5.0
2019-Jul-10 07:48N 55°00' W 005°14'1422.4
2019-Jul-10 07:12N 54°54' W 005°36'521.2
2019-Jul-10 06:59N 54°53' W 005°43'3 5.2
2019-Jul-10 06:21N 54°51' W 005°48'0 0.2
2019-Jul-10 05:51N 54°51' W 005°48'0 0.0
2019-Jul-10 05:24N 54°51' W 005°48'0 0.0
2019-Jul-10 04:54N 54°51' W 005°48'0 0.0
2019-Jul-10 04:24N 54°51' W 005°48'0 0.0
2019-Jul-10 03:54N 54°51' W 005°48'0 0.0
2019-Jul-10 03:24N 54°51' W 005°48'0 0.0
2019-Jul-10 02:57N 54°51' W 005°48'0 0.0
2019-Jul-10 02:27N 54°51' W 005°48'0 0.0
2019-Jul-10 01:57N 54°51' W 005°48'0 0.0
2019-Jul-10 00:57N 54°51' W 005°48'0 0.0
2019-Jul-10 00:27N 54°51' W 005°48'0 0.0
2019-Jul-10 00:00N 54°51' W 005°48'0 0.0
2019-Jul-09 23:30N 54°51' W 005°48'0 0.0
2019-Jul-09 23:00N 54°51' W 005°48'0 0.0
2019-Jul-09 22:30N 54°51' W 005°48'0 0.0
2019-Jul-09 21:57N 54°51' W 005°48'0 0.0
2019-Jul-09 21:03N 54°51' W 005°48'0 0.0
2019-Jul-09 20:48N 54°51' W 005°48'0 0.0
2019-Jul-09 20:30N 54°51' W 005°48'0 0.0
2019-Jul-09 20:00N 54°51' W 005°48'0 0.0
2019-Jul-09 19:30N 54°51' W 005°48'0 0.0
2019-Jul-09 19:00N 54°51' W 005°48'0 0.0
2019-Jul-09 18:30N 54°51' W 005°48'0 0.0
2019-Jul-09 17:45N 54°51' W 005°48'0 0.0
2019-Jul-09 16:57N 54°51' W 005°48'0 0.0
2019-Jul-09 16:09N 54°51' W 005°48'0 0.0
2019-Jul-09 15:51N 54°51' W 005°48'0 0.0
2019-Jul-09 14:57N 54°51' W 005°48'0 0.0
2019-Jul-09 11:39N 54°51' W 005°48'0 0.0
2019-Jul-08 22:42N 54°51' W 005°48'0 0.1
2019-Jul-08 22:30N 54°51' W 005°48'612.4
2019-Jul-08 22:01N 54°50' W 005°37'1019.7
2019-Jul-08 21:31N 54°42' W 005°27'1020.6
2019-Jul-08 21:01N 54°33' W 005°20'1020.4
2019-Jul-08 20:31N 54°23' W 005°13'1120.6
2019-Jul-08 19:58N 54°13' W 005°05'1421.1
2019-Jul-08 19:19N 54°01' W 004°56'1921.6
2019-Jul-08 18:26N 53°52' W 004°27'921.7
2019-Jul-08 18:00N 53°48' W 004°13'1121.8
2019-Jul-08 17:30N 53°43' W 003°56'1121.4
2019-Jul-08 17:01N 53°39' W 003°40'1121.1
2019-Jul-08 16:30N 53°34' W 003°24'714.5
2019-Jul-08 16:00N 53°31' W 003°12'815.4
2019-Jul-08 15:30N 53°27' W 003°02'4 7.4
2019-Jul-08 15:00N 53°23' W 003°01'0 0.0
2019-Jul-08 14:31N 53°23' W 003°01'0 0.0
2019-Jul-08 14:00N 53°23' W 003°01'0 0.0
2019-Jul-08 13:30N 53°23' W 003°01'0 0.0
2019-Jul-08 13:00N 53°23' W 003°01'0 0.0
2019-Jul-08 12:30N 53°23' W 003°01'0 0.0
2019-Jul-08 12:00N 53°23' W 003°01'0 0.0
2019-Jul-08 11:30N 53°23' W 003°01'0 0.0
2019-Jul-08 11:00N 53°23' W 003°01'0 0.0
2019-Jul-08 10:30N 53°23' W 003°01'0 0.0
2019-Jul-08 10:00N 53°23' W 003°01'0 0.0
2019-Jul-08 09:30N 53°23' W 003°01'0 0.0
2019-Jul-08 09:00N 53°23' W 003°01'0 0.0
2019-Jul-08 08:30N 53°23' W 003°01'0 0.0
2019-Jul-08 08:00N 53°23' W 003°01'0 0.0
2019-Jul-08 07:30N 53°23' W 003°01'0 0.0
2019-Jul-08 07:00N 53°23' W 003°01'0 0.0
2019-Jul-08 06:30N 53°23' W 003°01'0 0.0
2019-Jul-08 06:00N 53°23' W 003°01'0 0.0
2019-Jul-08 05:30N 53°23' W 003°01'0 0.0
2019-Jul-08 05:00N 53°23' W 003°01'0 0.0
2019-Jul-08 04:30N 53°23' W 003°01'0 0.0
2019-Jul-08 04:00N 53°23' W 003°01'0 0.0
2019-Jul-08 03:30N 53°23' W 003°01'0 0.0
2019-Jul-08 03:00N 53°23' W 003°01'0 0.0
2019-Jul-08 02:30N 53°23' W 003°01'0 0.0
2019-Jul-08 02:00N 53°23' W 003°01'0 0.0
2019-Jul-08 01:30N 53°23' W 003°01'0 0.0
2019-Jul-08 01:00N 53°23' W 003°01'0 0.0
2019-Jul-08 00:30N 53°23' W 003°01'0 0.0
2019-Jul-08 00:00N 53°23' W 003°01'0 0.0
2019-Jul-07 23:30N 53°23' W 003°01'0 0.0
2019-Jul-07 23:00N 53°23' W 003°01'0 0.0
2019-Jul-07 22:30N 53°23' W 003°01'0 0.0
2019-Jul-07 22:00N 53°23' W 003°01'0 0.0
2019-Jul-07 21:30N 53°23' W 003°01'0 0.0
2019-Jul-07 21:00N 53°23' W 003°01'0 0.0
2019-Jul-07 20:30N 53°23' W 003°01'0 0.0
2019-Jul-07 20:00N 53°23' W 003°01'0 0.0
2019-Jul-07 19:30N 53°23' W 003°01'0 0.0
2019-Jul-07 19:00N 53°23' W 003°01'0 0.0
2019-Jul-07 18:30N 53°23' W 003°01'0 0.0
2019-Jul-07 18:00N 53°23' W 003°01'0 0.0
2019-Jul-07 17:30N 53°23' W 003°01'0 0.0
2019-Jul-07 17:00N 53°23' W 003°01'0 0.0
2019-Jul-07 16:30N 53°23' W 003°01'0 0.0
2019-Jul-07 16:00N 53°23' W 003°01'0 0.0
2019-Jul-07 15:30N 53°23' W 003°01'0 0.0
2019-Jul-07 15:00N 53°23' W 003°01'0 0.0
2019-Jul-07 14:30N 53°23' W 003°01'0 0.0
2019-Jul-07 14:00N 53°23' W 003°01'0 0.0
2019-Jul-07 13:30N 53°23' W 003°01'0 0.0
2019-Jul-07 13:00N 53°23' W 003°01'0 0.0
2019-Jul-07 12:30N 53°23' W 003°01'0 0.0
2019-Jul-07 12:00N 53°23' W 003°01'0 0.0
2019-Jul-07 11:30N 53°23' W 003°01'0 0.0
2019-Jul-07 11:00N 53°23' W 003°01'0 0.0
2019-Jul-07 10:30N 53°23' W 003°01'0 0.0
2019-Jul-07 10:01N 53°23' W 003°01'0 0.0
2019-Jul-07 09:30N 53°23' W 003°01'0 0.0
2019-Jul-07 09:00N 53°23' W 003°01'0 0.0
2019-Jul-07 08:30N 53°23' W 003°01'0 0.0
2019-Jul-07 08:00N 53°23' W 003°01'0 0.0
2019-Jul-07 07:30N 53°23' W 003°01'0 0.0
2019-Jul-07 07:00N 53°23' W 003°01'0 0.0
2019-Jul-07 06:30N 53°23' W 003°01'0 0.0
2019-Jul-07 06:00N 53°23' W 003°01'0 0.0
2019-Jul-07 05:30N 53°23' W 003°01'0 0.0
2019-Jul-07 05:00N 53°23' W 003°01'0 0.0
2019-Jul-07 04:30N 53°23' W 003°01'0 0.0
2019-Jul-07 04:00N 53°23' W 003°01'0 0.0
2019-Jul-07 03:30N 53°23' W 003°01'0 0.0
2019-Jul-07 03:00N 53°23' W 003°01'0 0.0
2019-Jul-07 02:00N 53°23' W 003°01'0 0.0
2019-Jul-07 01:30N 53°23' W 003°01'0 0.0
2019-Jul-07 01:00N 53°23' W 003°01'0 0.0
2019-Jul-07 00:30N 53°23' W 003°01'0 0.0
2019-Jul-07 00:00N 53°23' W 003°01'  
Track history (hours):
 
Tides and Currents Weather Stations Pressure Air Temp Water Temp Dewpoint Dewpoint Depression Visibility Wind Speed Wind Dir Waves Ship Positions

European Causeway

Operator: P & O Irish Sea

Last reported at 2019-Jul-17 00:00 UTC. Time now 2019-Jul-17 00:24 UTC.
Position N 54°57' W 005°27'.

Length 145 m; draft 5.5 m.

Type: Passenger vessel. MMSI: 311027000.

Date/timePositionNaut miles runAvg speedWind from/ knotsBaromVisibWave heightAir tempDewpointWater temp
2019-Jul-17 00:00N 54°57' W 005°27'917.9
2019-Jul-16 23:30N 55°02' W 005°14'1 0.4
2019-Jul-16 20:14N 55°01' W 005°12'619.5
2019-Jul-16 19:54N 54°58' W 005°22'1021.0
2019-Jul-16 19:27N 54°54' W 005°37'715.4
2019-Jul-16 19:00N 54°51' W 005°48'0 0.1
2019-Jul-16 18:29N 54°51' W 005°48'0 0.0
2019-Jul-16 17:56N 54°51' W 005°48'6 8.5
2019-Jul-16 17:12N 54°55' W 005°39'421.8
2019-Jul-16 17:00N 54°57' W 005°33'1121.8
2019-Jul-16 16:30N 55°01' W 005°15'2 0.7
2019-Jul-16 13:57N 55°01' W 005°12'1022.1
2019-Jul-16 13:30N 54°57' W 005°27'1319.7
2019-Jul-16 12:51N 54°51' W 005°48'0 0.7
2019-Jul-16 12:24N 54°51' W 005°48'0 0.0
2019-Jul-16 11:57N 54°51' W 005°48'0 0.0
2019-Jul-16 11:30N 54°51' W 005°48'611.6
2019-Jul-16 11:00N 54°54' W 005°39'1320.2
2019-Jul-16 10:21N 54°60' W 005°18'5 1.8
2019-Jul-16 07:48N 55°01' W 005°11'717.8
2019-Jul-16 07:23N 54°57' W 005°22'1019.4
2019-Jul-16 06:52N 54°54' W 005°38'616.8
2019-Jul-16 06:29N 54°51' W 005°48'0 0.2
2019-Jul-16 05:58N 54°51' W 005°48'0 0.0
2019-Jul-16 05:28N 54°51' W 005°48'0 0.0
2019-Jul-16 05:00N 54°51' W 005°48'712.6
2019-Jul-16 04:26N 54°55' W 005°38'818.0
2019-Jul-16 04:00N 54°58' W 005°25'6 1.5
2019-Jul-16 00:11N 54°60' W 005°16'418.8
2019-Jul-15 23:59N 54°58' W 005°22'817.7
2019-Jul-15 23:30N 54°54' W 005°35'814.9
2019-Jul-15 22:57N 54°51' W 005°48'0 0.2
2019-Jul-15 22:19N 54°51' W 005°48'0 0.0
2019-Jul-15 21:49N 54°51' W 005°48'0 0.0
2019-Jul-15 21:22N 54°51' W 005°48'0 0.0
2019-Jul-15 20:58N 54°51' W 005°48'4 8.5
2019-Jul-15 20:27N 54°53' W 005°41'817.5
2019-Jul-15 20:00N 54°56' W 005°29'918.4
2019-Jul-15 19:30N 55°01' W 005°14'2 0.9
2019-Jul-15 16:48N 55°01' W 005°10'619.6
2019-Jul-15 16:30N 54°58' W 005°19'1020.2
2019-Jul-15 16:00N 54°55' W 005°35'816.2
2019-Jul-15 15:30N 54°51' W 005°48'0 0.1
2019-Jul-15 14:55N 54°51' W 005°48'0 0.0
2019-Jul-15 14:29N 54°51' W 005°48'5 9.9
2019-Jul-15 14:00N 54°54' W 005°41'918.6
2019-Jul-15 13:30N 54°58' W 005°27'917.4
2019-Jul-15 13:00N 55°01' W 005°13'15 5.0
2019-Jul-15 10:03N 54°54' W 005°36'119.8
2019-Jul-15 10:00N 54°54' W 005°37'713.0
2019-Jul-15 09:29N 54°51' W 005°48'0 0.0
2019-Jul-15 08:50N 54°51' W 005°48'0 0.0
2019-Jul-15 08:20N 54°51' W 005°48'2 5.5
2019-Jul-15 07:57N 54°52' W 005°45'918.1
2019-Jul-15 07:29N 54°56' W 005°32'918.7
2019-Jul-15 07:00N 54°60' W 005°18'4 1.6
2019-Jul-15 04:19N 55°01' W 005°11'617.9
2019-Jul-15 04:00N 54°58' W 005°20'918.4
2019-Jul-15 03:30N 54°54' W 005°34'816.4
2019-Jul-15 02:59N 54°52' W 005°48'1 1.4
2019-Jul-15 02:28N 54°51' W 005°48'0 0.0
2019-Jul-15 01:58N 54°51' W 005°48'0 0.0
2019-Jul-15 01:28N 54°51' W 005°48'0 0.0
2019-Jul-15 00:52N 54°51' W 005°48'2 5.9
2019-Jul-15 00:30N 54°53' W 005°47'1019.1
2019-Jul-15 00:00N 54°57' W 005°32'918.4
2019-Jul-14 23:30N 55°00' W 005°16'3 0.8
2019-Jul-14 20:21N 55°01' W 005°12'821.7
2019-Jul-14 20:00N 54°57' W 005°24'1222.2
2019-Jul-14 19:28N 54°53' W 005°43'3 7.5
2019-Jul-14 19:00N 54°51' W 005°48'0 0.0
2019-Jul-14 18:30N 54°51' W 005°48'0 0.0
2019-Jul-14 17:57N 54°51' W 005°48'0 0.0
2019-Jul-14 17:30N 54°51' W 005°48'510.4
2019-Jul-14 17:00N 54°54' W 005°40'918.2
2019-Jul-14 16:29N 54°58' W 005°25'12 5.1
2019-Jul-14 14:03N 55°01' W 005°04'415.2
2019-Jul-14 13:48N 55°01' W 005°11'618.7
2019-Jul-14 13:28N 54°58' W 005°20'818.1
2019-Jul-14 13:00N 54°55' W 005°34'917.3
2019-Jul-14 12:30N 54°52' W 005°48'1 1.6
2019-Jul-14 11:59N 54°51' W 005°48'0 0.0
2019-Jul-14 11:29N 54°51' W 005°48'5 9.3
2019-Jul-14 10:58N 54°53' W 005°41'919.0
2019-Jul-14 10:30N 54°57' W 005°27'14 5.4
2019-Jul-14 07:59N 55°01' W 005°05'816.6
2019-Jul-14 07:29N 54°59' W 005°18'918.1
2019-Jul-14 07:00N 54°55' W 005°32'1017.7
2019-Jul-14 06:28N 54°51' W 005°48'0 0.6
2019-Jul-14 05:53N 54°51' W 005°48'0 0.0
2019-Jul-14 05:26N 54°51' W 005°48'0 0.0
2019-Jul-14 04:56N 54°51' W 005°48'0 0.0
2019-Jul-14 04:23N 54°51' W 005°48'0 0.0
2019-Jul-14 03:53N 54°51' W 005°48'0 0.0
2019-Jul-14 03:26N 54°51' W 005°48'0 0.0
2019-Jul-14 02:56N 54°51' W 005°48'0 0.0
2019-Jul-14 01:59N 54°51' W 005°48'0 0.0
2019-Jul-14 00:26N 54°51' W 005°48'0 0.1
2019-Jul-13 23:50N 54°51' W 005°48'0 0.0
2019-Jul-13 23:26N 54°51' W 005°48'0 0.0
2019-Jul-13 22:32N 54°51' W 005°48'0 0.3
2019-Jul-13 22:29N 54°51' W 005°48'0 0.1
2019-Jul-13 21:59N 54°51' W 005°48'0 0.0
2019-Jul-13 21:17N 54°51' W 005°48'0 0.0
2019-Jul-13 20:57N 54°51' W 005°48'4 8.0
2019-Jul-13 20:26N 54°53' W 005°42'818.3
2019-Jul-13 19:58N 54°57' W 005°29'10 3.2
2019-Jul-13 16:43N 55°01' W 005°12'719.3
2019-Jul-13 16:22N 54°57' W 005°22'1020.4
2019-Jul-13 15:53N 54°54' W 005°38'613.9
2019-Jul-13 15:26N 54°51' W 005°48'0 0.0
2019-Jul-13 14:56N 54°51' W 005°48'0 0.0
2019-Jul-13 14:30N 54°51' W 005°48'610.5
2019-Jul-13 13:57N 54°54' W 005°40'918.2
2019-Jul-13 13:28N 54°58' W 005°26'9 3.2
2019-Jul-13 10:45N 55°01' W 005°12'518.6
2019-Jul-13 10:28N 54°58' W 005°20'818.1
2019-Jul-13 10:00N 54°55' W 005°34'917.2
2019-Jul-13 09:30N 54°51' W 005°48'1 1.2
2019-Jul-13 08:57N 54°51' W 005°48'0 0.0
2019-Jul-13 08:27N 54°51' W 005°48'711.7
2019-Jul-13 07:49N 54°55' W 005°37'717.7
2019-Jul-13 07:24N 54°58' W 005°25'8 2.5
2019-Jul-13 04:11N 55°01' W 005°12'617.4
2019-Jul-13 03:49N 54°58' W 005°22'718.3
2019-Jul-13 03:27N 54°55' W 005°33'918.3
2019-Jul-13 02:56N 54°51' W 005°48'1 1.3
2019-Jul-13 02:29N 54°51' W 005°48'0 0.0
2019-Jul-13 01:59N 54°51' W 005°48'0 0.0
2019-Jul-13 01:29N 54°51' W 005°48'0 0.0
2019-Jul-13 00:54N 54°51' W 005°48'4 9.0
2019-Jul-13 00:24N 54°53' W 005°42'1618.0
2019-Jul-12 23:32N 55°00' W 005°17'017.8
2019-Jul-12 23:30N 55°00' W 005°16'1 0.4
2019-Jul-12 20:10N 55°01' W 005°14'417.8
2019-Jul-12 19:55N 54°58' W 005°20'1218.3
2019-Jul-12 19:16N 54°54' W 005°40'516.1
2019-Jul-12 18:56N 54°51' W 005°48'0 0.2
2019-Jul-12 18:19N 54°51' W 005°48'0 0.0
2019-Jul-12 17:49N 54°51' W 005°48'0 0.0
2019-Jul-12 17:30N 54°51' W 005°48'912.5
2019-Jul-12 16:48N 54°55' W 005°35'1117.9
2019-Jul-12 16:10N 55°00' W 005°17'3 1.1
2019-Jul-12 13:47N 55°01' W 005°12'619.7
2019-Jul-12 13:27N 54°57' W 005°22'920.0
2019-Jul-12 13:00N 54°54' W 005°37'714.4
2019-Jul-12 12:30N 54°51' W 005°48'0 0.1
2019-Jul-12 11:53N 54°51' W 005°48'0 0.0
2019-Jul-12 11:30N 54°51' W 005°48'1115.7
2019-Jul-12 10:47N 54°56' W 005°31'920.1
2019-Jul-12 10:20N 55°00' W 005°17'2 0.9
2019-Jul-12 07:43N 55°01' W 005°13'618.4
2019-Jul-12 07:22N 54°58' W 005°22'718.2
2019-Jul-12 07:00N 54°55' W 005°33'916.8
2019-Jul-12 06:27N 54°51' W 005°48'0 0.3
2019-Jul-12 05:54N 54°51' W 005°48'0 0.0
2019-Jul-12 05:24N 54°51' W 005°48'0 0.0
2019-Jul-12 05:00N 54°51' W 005°48'510.5
2019-Jul-12 04:29N 54°54' W 005°40'1018.0
2019-Jul-12 03:57N 54°58' W 005°25'7 1.9
2019-Jul-12 00:12N 55°01' W 005°14'718.3
2019-Jul-11 23:49N 54°57' W 005°24'518.0
2019-Jul-11 23:30N 54°55' W 005°33'916.4
2019-Jul-11 22:56N 54°51' W 005°48'0 0.4
2019-Jul-11 22:30N 54°51' W 005°48'0 0.0
2019-Jul-11 22:00N 54°51' W 005°48'0 0.0
2019-Jul-11 21:30N 54°51' W 005°48'0 0.0
2019-Jul-11 21:00N 54°51' W 005°48'710.3
2019-Jul-11 20:21N 54°54' W 005°38'1418.4
2019-Jul-11 19:36N 55°00' W 005°16'1 0.4
2019-Jul-11 16:47N 54°60' W 005°14'621.3
2019-Jul-11 16:29N 54°57' W 005°24'1520.6
2019-Jul-11 15:46N 54°51' W 005°48'0 0.4
2019-Jul-11 15:23N 54°51' W 005°48'0 0.0
2019-Jul-11 14:50N 54°51' W 005°48'7 9.8
2019-Jul-11 14:07N 54°54' W 005°38'421.8
2019-Jul-11 13:57N 54°56' W 005°32'11 3.4
2019-Jul-11 10:43N 54°60' W 005°14'520.6
2019-Jul-11 10:29N 54°58' W 005°22'920.0
2019-Jul-11 10:00N 54°54' W 005°37'714.0
2019-Jul-11 09:30N 54°51' W 005°48'0 0.0
2019-Jul-11 08:51N 54°51' W 005°48'0 0.0
2019-Jul-11 08:30N 54°51' W 005°48'5 9.9
2019-Jul-11 07:59N 54°54' W 005°40'918.6
2019-Jul-11 07:28N 54°58' W 005°26'8 2.5
2019-Jul-11 04:16N 55°02' W 005°14'616.6
2019-Jul-11 03:55N 54°58' W 005°22'818.8
2019-Jul-11 03:30N 54°55' W 005°34'917.1
2019-Jul-11 02:59N 54°51' W 005°48'0 0.2
2019-Jul-11 02:28N 54°51' W 005°48'0 0.0
2019-Jul-11 02:01N 54°51' W 005°48'0 0.0
2019-Jul-11 01:22N 54°51' W 005°48'7 9.0
2019-Jul-11 00:39N 54°54' W 005°38'321.6
2019-Jul-11 00:30N 54°56' W 005°33'1121.7
2019-Jul-10 23:59N 55°00' W 005°16'0 0.1
2019-Jul-10 20:57N 55°00' W 005°15'1222.4
2019-Jul-10 20:26N 54°55' W 005°33'918.0
2019-Jul-10 19:55N 54°51' W 005°48'0 0.4
2019-Jul-10 19:30N 54°51' W 005°48'0 0.0
2019-Jul-10 18:27N 54°51' W 005°48'0 0.0
2019-Jul-10 17:57N 54°51' W 005°48'0 0.0
2019-Jul-10 17:30N 54°51' W 005°48'21 5.6
2019-Jul-10 13:41N 55°00' W 005°14'1620.3
2019-Jul-10 12:55N 54°55' W 005°40'612.1
2019-Jul-10 12:26N 54°51' W 005°48'0 0.0
2019-Jul-10 11:32N 54°51' W 005°48'0 0.1
2019-Jul-10 11:30N 54°51' W 005°48'610.8
2019-Jul-10 10:59N 54°54' W 005°40'16 5.0
2019-Jul-10 07:48N 55°00' W 005°14'1422.4
2019-Jul-10 07:12N 54°54' W 005°36'521.2
2019-Jul-10 06:59N 54°53' W 005°43'3 5.2
2019-Jul-10 06:21N 54°51' W 005°48'0 0.2
2019-Jul-10 05:51N 54°51' W 005°48'0 0.0
2019-Jul-10 05:24N 54°51' W 005°48'0 0.0
2019-Jul-10 04:54N 54°51' W 005°48'0 0.0
2019-Jul-10 04:24N 54°51' W 005°48'0 0.0
2019-Jul-10 03:54N 54°51' W 005°48'0 0.0
2019-Jul-10 03:24N 54°51' W 005°48'0 0.0
2019-Jul-10 02:57N 54°51' W 005°48'0 0.0
2019-Jul-10 02:27N 54°51' W 005°48'0 0.0
2019-Jul-10 01:57N 54°51' W 005°48'0 0.0
2019-Jul-10 00:57N 54°51' W 005°48'0 0.0
2019-Jul-10 00:27N 54°51' W 005°48'0 0.0
2019-Jul-10 00:00N 54°51' W 005°48'0 0.0
2019-Jul-09 23:30N 54°51' W 005°48'0 0.0
2019-Jul-09 23:00N 54°51' W 005°48'0 0.0
2019-Jul-09 22:30N 54°51' W 005°48'0 0.0
2019-Jul-09 21:57N 54°51' W 005°48'0 0.0
2019-Jul-09 21:03N 54°51' W 005°48'0 0.0
2019-Jul-09 20:48N 54°51' W 005°48'0 0.0
2019-Jul-09 20:30N 54°51' W 005°48'0 0.0
2019-Jul-09 20:00N 54°51' W 005°48'0 0.0
2019-Jul-09 19:30N 54°51' W 005°48'0 0.0
2019-Jul-09 19:00N 54°51' W 005°48'0 0.0
2019-Jul-09 18:30N 54°51' W 005°48'0 0.0
2019-Jul-09 17:45N 54°51' W 005°48'0 0.0
2019-Jul-09 16:57N 54°51' W 005°48'0 0.0
2019-Jul-09 16:09N 54°51' W 005°48'0 0.0
2019-Jul-09 15:51N 54°51' W 005°48'0 0.0
2019-Jul-09 14:57N 54°51' W 005°48'0 0.0
2019-Jul-09 11:39N 54°51' W 005°48'0 0.0
2019-Jul-08 22:42N 54°51' W 005°48'0 0.1
2019-Jul-08 22:30N 54°51' W 005°48'612.4
2019-Jul-08 22:01N 54°50' W 005°37'1019.7
2019-Jul-08 21:31N 54°42' W 005°27'1020.6
2019-Jul-08 21:01N 54°33' W 005°20'1020.4
2019-Jul-08 20:31N 54°23' W 005°13'1120.6
2019-Jul-08 19:58N 54°13' W 005°05'1421.1
2019-Jul-08 19:19N 54°01' W 004°56'1921.6
2019-Jul-08 18:26N 53°52' W 004°27'921.7
2019-Jul-08 18:00N 53°48' W 004°13'1121.8
2019-Jul-08 17:30N 53°43' W 003°56'1121.4
2019-Jul-08 17:01N 53°39' W 003°40'1121.1
2019-Jul-08 16:30N 53°34' W 003°24'714.5
2019-Jul-08 16:00N 53°31' W 003°12'815.4
2019-Jul-08 15:30N 53°27' W 003°02'4 7.4
2019-Jul-08 15:00N 53°23' W 003°01'0 0.0
2019-Jul-08 14:31N 53°23' W 003°01'0 0.0
2019-Jul-08 14:00N 53°23' W 003°01'0 0.0
2019-Jul-08 13:30N 53°23' W 003°01'0 0.0
2019-Jul-08 13:00N 53°23' W 003°01'0 0.0
2019-Jul-08 12:30N 53°23' W 003°01'0 0.0
2019-Jul-08 12:00N 53°23' W 003°01'0 0.0
2019-Jul-08 11:30N 53°23' W 003°01'0 0.0
2019-Jul-08 11:00N 53°23' W 003°01'0 0.0
2019-Jul-08 10:30N 53°23' W 003°01'0 0.0
2019-Jul-08 10:00N 53°23' W 003°01'0 0.0
2019-Jul-08 09:30N 53°23' W 003°01'0 0.0
2019-Jul-08 09:00N 53°23' W 003°01'0 0.0
2019-Jul-08 08:30N 53°23' W 003°01'0 0.0
2019-Jul-08 08:00N 53°23' W 003°01'0 0.0
2019-Jul-08 07:30N 53°23' W 003°01'0 0.0
2019-Jul-08 07:00N 53°23' W 003°01'0 0.0
2019-Jul-08 06:30N 53°23' W 003°01'0 0.0
2019-Jul-08 06:00N 53°23' W 003°01'0 0.0
2019-Jul-08 05:30N 53°23' W 003°01'0 0.0
2019-Jul-08 05:00N 53°23' W 003°01'0 0.0
2019-Jul-08 04:30N 53°23' W 003°01'0 0.0
2019-Jul-08 04:00N 53°23' W 003°01'0 0.0
2019-Jul-08 03:30N 53°23' W 003°01'0 0.0
2019-Jul-08 03:00N 53°23' W 003°01'0 0.0
2019-Jul-08 02:30N 53°23' W 003°01'0 0.0
2019-Jul-08 02:00N 53°23' W 003°01'0 0.0
2019-Jul-08 01:30N 53°23' W 003°01'0 0.0
2019-Jul-08 01:00N 53°23' W 003°01'0 0.0
2019-Jul-08 00:30N 53°23' W 003°01'0 0.0
2019-Jul-08 00:00N 53°23' W 003°01'0 0.0
2019-Jul-07 23:30N 53°23' W 003°01'0 0.0
2019-Jul-07 23:00N 53°23' W 003°01'0 0.0
2019-Jul-07 22:30N 53°23' W 003°01'0 0.0
2019-Jul-07 22:00N 53°23' W 003°01'0 0.0
2019-Jul-07 21:30N 53°23' W 003°01'0 0.0
2019-Jul-07 21:00N 53°23' W 003°01'0 0.0
2019-Jul-07 20:30N 53°23' W 003°01'0 0.0
2019-Jul-07 20:00N 53°23' W 003°01'0 0.0
2019-Jul-07 19:30N 53°23' W 003°01'0 0.0
2019-Jul-07 19:00N 53°23' W 003°01'0 0.0
2019-Jul-07 18:30N 53°23' W 003°01'0 0.0
2019-Jul-07 18:00N 53°23' W 003°01'0 0.0
2019-Jul-07 17:30N 53°23' W 003°01'0 0.0
2019-Jul-07 17:00N 53°23' W 003°01'0 0.0
2019-Jul-07 16:30N 53°23' W 003°01'0 0.0
2019-Jul-07 16:00N 53°23' W 003°01'0 0.0
2019-Jul-07 15:30N 53°23' W 003°01'0 0.0
2019-Jul-07 15:00N 53°23' W 003°01'0 0.0
2019-Jul-07 14:30N 53°23' W 003°01'0 0.0
2019-Jul-07 14:00N 53°23' W 003°01'0 0.0
2019-Jul-07 13:30N 53°23' W 003°01'0 0.0
2019-Jul-07 13:00N 53°23' W 003°01'0 0.0
2019-Jul-07 12:30N 53°23' W 003°01'0 0.0
2019-Jul-07 12:00N 53°23' W 003°01'0 0.0
2019-Jul-07 11:30N 53°23' W 003°01'0 0.0
2019-Jul-07 11:00N 53°23' W 003°01'0 0.0
2019-Jul-07 10:30N 53°23' W 003°01'0 0.0
2019-Jul-07 10:01N 53°23' W 003°01'0 0.0
2019-Jul-07 09:30N 53°23' W 003°01'0 0.0
2019-Jul-07 09:00N 53°23' W 003°01'0 0.0
2019-Jul-07 08:30N 53°23' W 003°01'0 0.0
2019-Jul-07 08:00N 53°23' W 003°01'0 0.0
2019-Jul-07 07:30N 53°23' W 003°01'0 0.0
2019-Jul-07 07:00N 53°23' W 003°01'0 0.0
2019-Jul-07 06:30N 53°23' W 003°01'0 0.0
2019-Jul-07 06:00N 53°23' W 003°01'0 0.0
2019-Jul-07 05:30N 53°23' W 003°01'0 0.0
2019-Jul-07 05:00N 53°23' W 003°01'0 0.0
2019-Jul-07 04:30N 53°23' W 003°01'0 0.0
2019-Jul-07 04:00N 53°23' W 003°01'0 0.0
2019-Jul-07 03:30N 53°23' W 003°01'0 0.0
2019-Jul-07 03:00N 53°23' W 003°01'0 0.0
2019-Jul-07 02:00N 53°23' W 003°01'0 0.0
2019-Jul-07 01:30N 53°23' W 003°01'0 0.0
2019-Jul-07 01:00N 53°23' W 003°01'0 0.0
2019-Jul-07 00:30N 53°23' W 003°01'0 0.0
2019-Jul-07 00:00N 53°23' W 003°01'  

Dump ship's entire track history